sensor_id;sensor_type;location;lat;lon;timestamp;P1;durP1;ratioP1;P2;durP2;ratioP2
76727;SDS011;65652;53.132;18.026;2024-03-08T00:01:42;22.80;;;8.00;;
76727;SDS011;65652;53.132;18.026;2024-03-08T00:04:11;22.20;;;7.50;;
76727;SDS011;65652;53.132;18.026;2024-03-08T00:06:38;21.70;;;8.40;;
76727;SDS011;65652;53.132;18.026;2024-03-08T00:09:06;21.20;;;8.50;;
76727;SDS011;65652;53.132;18.026;2024-03-08T00:11:34;24.10;;;8.90;;
76727;SDS011;65652;53.132;18.026;2024-03-08T00:14:01;18.70;;;7.90;;
76727;SDS011;65652;53.132;18.026;2024-03-08T00:16:28;24.10;;;8.20;;
76727;SDS011;65652;53.132;18.026;2024-03-08T00:18:55;23.10;;;8.80;;
76727;SDS011;65652;53.132;18.026;2024-03-08T00:21:22;19.60;;;7.60;;
76727;SDS011;65652;53.132;18.026;2024-03-08T00:23:49;20.40;;;8.30;;
76727;SDS011;65652;53.132;18.026;2024-03-08T00:26:16;20.00;;;8.40;;
76727;SDS011;65652;53.132;18.026;2024-03-08T00:28:43;19.60;;;7.80;;
76727;SDS011;65652;53.132;18.026;2024-03-08T00:31:09;20.30;;;8.90;;
76727;SDS011;65652;53.132;18.026;2024-03-08T00:33:37;21.00;;;8.20;;
76727;SDS011;65652;53.132;18.026;2024-03-08T00:36:03;20.90;;;8.30;;
76727;SDS011;65652;53.132;18.026;2024-03-08T00:38:31;20.80;;;8.20;;
76727;SDS011;65652;53.132;18.026;2024-03-08T00:40:58;21.70;;;8.30;;
76727;SDS011;65652;53.132;18.026;2024-03-08T00:43:25;17.70;;;7.90;;
76727;SDS011;65652;53.132;18.026;2024-03-08T00:45:52;19.80;;;8.50;;
76727;SDS011;65652;53.132;18.026;2024-03-08T00:48:19;19.40;;;8.60;;
76727;SDS011;65652;53.132;18.026;2024-03-08T00:50:47;23.70;;;9.00;;
76727;SDS011;65652;53.132;18.026;2024-03-08T00:53:14;21.40;;;9.00;;
76727;SDS011;65652;53.132;18.026;2024-03-08T00:55:41;18.90;;;7.80;;
76727;SDS011;65652;53.132;18.026;2024-03-08T00:58:09;22.80;;;8.80;;
76727;SDS011;65652;53.132;18.026;2024-03-08T01:00:36;24.30;;;8.70;;
76727;SDS011;65652;53.132;18.026;2024-03-08T01:03:05;22.70;;;8.60;;
76727;SDS011;65652;53.132;18.026;2024-03-08T01:05:33;20.90;;;7.80;;
76727;SDS011;65652;53.132;18.026;2024-03-08T01:08:01;24.60;;;9.80;;
76727;SDS011;65652;53.132;18.026;2024-03-08T01:10:30;22.40;;;8.50;;
76727;SDS011;65652;53.132;18.026;2024-03-08T01:12:56;20.50;;;9.20;;
76727;SDS011;65652;53.132;18.026;2024-03-08T01:15:26;20.10;;;8.10;;
76727;SDS011;65652;53.132;18.026;2024-03-08T01:17:53;20.80;;;8.60;;
76727;SDS011;65652;53.132;18.026;2024-03-08T01:20:20;22.80;;;8.30;;
76727;SDS011;65652;53.132;18.026;2024-03-08T01:22:47;22.40;;;9.00;;
76727;SDS011;65652;53.132;18.026;2024-03-08T01:25:14;20.20;;;8.40;;
76727;SDS011;65652;53.132;18.026;2024-03-08T01:27:41;24.00;;;9.30;;
76727;SDS011;65652;53.132;18.026;2024-03-08T01:30:08;22.50;;;9.40;;
76727;SDS011;65652;53.132;18.026;2024-03-08T01:32:39;22.40;;;9.10;;
76727;SDS011;65652;53.132;18.026;2024-03-08T01:35:06;21.40;;;9.30;;
76727;SDS011;65652;53.132;18.026;2024-03-08T01:37:36;19.80;;;8.70;;
76727;SDS011;65652;53.132;18.026;2024-03-08T01:40:04;20.00;;;8.30;;
76727;SDS011;65652;53.132;18.026;2024-03-08T01:42:31;21.50;;;8.90;;
76727;SDS011;65652;53.132;18.026;2024-03-08T01:44:58;21.80;;;9.40;;
76727;SDS011;65652;53.132;18.026;2024-03-08T01:47:25;23.30;;;9.60;;
76727;SDS011;65652;53.132;18.026;2024-03-08T01:49:52;24.00;;;10.40;;
76727;SDS011;65652;53.132;18.026;2024-03-08T01:52:19;27.30;;;10.90;;
76727;SDS011;65652;53.132;18.026;2024-03-08T01:54:49;24.90;;;10.70;;
76727;SDS011;65652;53.132;18.026;2024-03-08T01:57:16;27.80;;;10.10;;
76727;SDS011;65652;53.132;18.026;2024-03-08T01:59:43;23.10;;;9.30;;
76727;SDS011;65652;53.132;18.026;2024-03-08T02:02:10;22.80;;;8.40;;
76727;SDS011;65652;53.132;18.026;2024-03-08T02:04:40;19.50;;;8.10;;
76727;SDS011;65652;53.132;18.026;2024-03-08T02:07:07;27.80;;;9.70;;
76727;SDS011;65652;53.132;18.026;2024-03-08T02:09:34;23.60;;;8.60;;
76727;SDS011;65652;53.132;18.026;2024-03-08T02:12:01;27.60;;;9.90;;
76727;SDS011;65652;53.132;18.026;2024-03-08T02:14:31;23.40;;;9.50;;
76727;SDS011;65652;53.132;18.026;2024-03-08T02:17:01;20.20;;;9.00;;
76727;SDS011;65652;53.132;18.026;2024-03-08T02:19:29;21.50;;;8.60;;
76727;SDS011;65652;53.132;18.026;2024-03-08T02:21:56;23.00;;;9.50;;
76727;SDS011;65652;53.132;18.026;2024-03-08T02:24:24;22.10;;;9.20;;
76727;SDS011;65652;53.132;18.026;2024-03-08T02:26:52;24.80;;;10.20;;
76727;SDS011;65652;53.132;18.026;2024-03-08T02:29:20;21.40;;;8.90;;
76727;SDS011;65652;53.132;18.026;2024-03-08T02:31:47;21.00;;;9.30;;
76727;SDS011;65652;53.132;18.026;2024-03-08T02:34:14;23.60;;;9.60;;
76727;SDS011;65652;53.132;18.026;2024-03-08T02:36:41;24.40;;;9.90;;
76727;SDS011;65652;53.132;18.026;2024-03-08T02:39:08;27.30;;;9.60;;
76727;SDS011;65652;53.132;18.026;2024-03-08T02:41:37;22.90;;;9.90;;
76727;SDS011;65652;53.132;18.026;2024-03-08T02:44:03;24.70;;;9.30;;
76727;SDS011;65652;53.132;18.026;2024-03-08T02:46:30;22.30;;;9.70;;
76727;SDS011;65652;53.132;18.026;2024-03-08T02:48:57;25.10;;;10.50;;
76727;SDS011;65652;53.132;18.026;2024-03-08T02:51:24;26.60;;;10.10;;
76727;SDS011;65652;53.132;18.026;2024-03-08T02:53:53;22.10;;;9.20;;
76727;SDS011;65652;53.132;18.026;2024-03-08T02:56:19;23.40;;;9.70;;
76727;SDS011;65652;53.132;18.026;2024-03-08T02:58:48;24.50;;;9.40;;
76727;SDS011;65652;53.132;18.026;2024-03-08T03:01:15;22.90;;;9.20;;
76727;SDS011;65652;53.132;18.026;2024-03-08T03:03:42;22.70;;;9.60;;
76727;SDS011;65652;53.132;18.026;2024-03-08T03:06:09;26.80;;;10.10;;
76727;SDS011;65652;53.132;18.026;2024-03-08T03:08:36;22.10;;;8.90;;
76727;SDS011;65652;53.132;18.026;2024-03-08T03:11:03;24.10;;;10.00;;
76727;SDS011;65652;53.132;18.026;2024-03-08T03:13:30;18.60;;;9.20;;
76727;SDS011;65652;53.132;18.026;2024-03-08T03:15:56;20.90;;;9.80;;
76727;SDS011;65652;53.132;18.026;2024-03-08T03:18:24;20.90;;;9.80;;
76727;SDS011;65652;53.132;18.026;2024-03-08T03:20:52;24.50;;;9.10;;
76727;SDS011;65652;53.132;18.026;2024-03-08T03:23:19;21.90;;;10.70;;
76727;SDS011;65652;53.132;18.026;2024-03-08T03:25:47;24.50;;;9.80;;
76727;SDS011;65652;53.132;18.026;2024-03-08T03:28:14;26.30;;;10.70;;
76727;SDS011;65652;53.132;18.026;2024-03-08T03:30:45;26.30;;;10.10;;
76727;SDS011;65652;53.132;18.026;2024-03-08T03:33:13;26.20;;;9.60;;
76727;SDS011;65652;53.132;18.026;2024-03-08T03:35:41;28.30;;;11.10;;
76727;SDS011;65652;53.132;18.026;2024-03-08T03:38:09;29.10;;;10.60;;
76727;SDS011;65652;53.132;18.026;2024-03-08T03:40:37;26.30;;;11.30;;
76727;SDS011;65652;53.132;18.026;2024-03-08T03:43:05;25.10;;;10.30;;
76727;SDS011;65652;53.132;18.026;2024-03-08T03:45:32;25.00;;;10.50;;
76727;SDS011;65652;53.132;18.026;2024-03-08T03:48:04;26.20;;;10.30;;
76727;SDS011;65652;53.132;18.026;2024-03-08T03:50:33;27.30;;;10.00;;
76727;SDS011;65652;53.132;18.026;2024-03-08T03:53:03;25.20;;;10.30;;
76727;SDS011;65652;53.132;18.026;2024-03-08T03:55:33;24.00;;;10.40;;
76727;SDS011;65652;53.132;18.026;2024-03-08T03:58:01;27.50;;;10.50;;
76727;SDS011;65652;53.132;18.026;2024-03-08T04:00:28;27.00;;;10.70;;
76727;SDS011;65652;53.132;18.026;2024-03-08T04:02:55;25.90;;;10.80;;
76727;SDS011;65652;53.132;18.026;2024-03-08T04:05:25;24.70;;;10.50;;
76727;SDS011;65652;53.132;18.026;2024-03-08T04:07:52;23.50;;;10.40;;
76727;SDS011;65652;53.132;18.026;2024-03-08T04:10:19;28.70;;;11.60;;
76727;SDS011;65652;53.132;18.026;2024-03-08T04:12:46;28.00;;;11.30;;
76727;SDS011;65652;53.132;18.026;2024-03-08T04:15:13;26.70;;;10.40;;
76727;SDS011;65652;53.132;18.026;2024-03-08T04:17:41;26.00;;;9.90;;
76727;SDS011;65652;53.132;18.026;2024-03-08T04:20:08;26.90;;;10.90;;
76727;SDS011;65652;53.132;18.026;2024-03-08T04:22:41;30.60;;;11.40;;
76727;SDS011;65652;53.132;18.026;2024-03-08T04:25:08;26.90;;;10.90;;
76727;SDS011;65652;53.132;18.026;2024-03-08T04:27:36;28.60;;;10.80;;
76727;SDS011;65652;53.132;18.026;2024-03-08T04:30:03;25.60;;;10.70;;
76727;SDS011;65652;53.132;18.026;2024-03-08T04:32:30;23.10;;;10.50;;
76727;SDS011;65652;53.132;18.026;2024-03-08T04:37:27;24.70;;;9.60;;
76727;SDS011;65652;53.132;18.026;2024-03-08T04:39:56;25.90;;;10.40;;
76727;SDS011;65652;53.132;18.026;2024-03-08T04:42:23;24.50;;;10.50;;
76727;SDS011;65652;53.132;18.026;2024-03-08T04:44:51;26.50;;;10.20;;
76727;SDS011;65652;53.132;18.026;2024-03-08T04:49:46;27.00;;;10.90;;
76727;SDS011;65652;53.132;18.026;2024-03-08T04:52:13;31.90;;;11.10;;
76727;SDS011;65652;53.132;18.026;2024-03-08T04:54:40;26.00;;;10.70;;
76727;SDS011;65652;53.132;18.026;2024-03-08T04:57:07;30.70;;;10.70;;
76727;SDS011;65652;53.132;18.026;2024-03-08T04:59:34;27.80;;;10.40;;
76727;SDS011;65652;53.132;18.026;2024-03-08T05:02:02;30.90;;;11.10;;
76727;SDS011;65652;53.132;18.026;2024-03-08T05:04:29;28.50;;;11.00;;
76727;SDS011;65652;53.132;18.026;2024-03-08T05:06:56;30.20;;;11.40;;
76727;SDS011;65652;53.132;18.026;2024-03-08T05:09:23;25.30;;;10.90;;
76727;SDS011;65652;53.132;18.026;2024-03-08T05:11:50;28.60;;;10.60;;
76727;SDS011;65652;53.132;18.026;2024-03-08T05:14:17;26.40;;;10.60;;
76727;SDS011;65652;53.132;18.026;2024-03-08T05:16:46;27.30;;;11.80;;
76727;SDS011;65652;53.132;18.026;2024-03-08T05:19:17;28.60;;;10.80;;
76727;SDS011;65652;53.132;18.026;2024-03-08T05:21:46;30.40;;;12.20;;
76727;SDS011;65652;53.132;18.026;2024-03-08T05:26:42;30.70;;;12.80;;
76727;SDS011;65652;53.132;18.026;2024-03-08T05:29:09;36.20;;;13.90;;
76727;SDS011;65652;53.132;18.026;2024-03-08T05:31:49;34.40;;;14.10;;
76727;SDS011;65652;53.132;18.026;2024-03-08T05:34:19;32.80;;;13.80;;
76727;SDS011;65652;53.132;18.026;2024-03-08T05:36:48;33.00;;;13.30;;
76727;SDS011;65652;53.132;18.026;2024-03-08T05:39:20;33.00;;;12.80;;
76727;SDS011;65652;53.132;18.026;2024-03-08T05:41:47;33.00;;;12.50;;
76727;SDS011;65652;53.132;18.026;2024-03-08T05:44:14;30.20;;;12.60;;
76727;SDS011;65652;53.132;18.026;2024-03-08T05:46:43;30.40;;;12.20;;
76727;SDS011;65652;53.132;18.026;2024-03-08T05:49:10;26.90;;;11.20;;
76727;SDS011;65652;53.132;18.026;2024-03-08T05:51:38;30.80;;;11.10;;
76727;SDS011;65652;53.132;18.026;2024-03-08T05:54:07;29.60;;;12.20;;
76727;SDS011;65652;53.132;18.026;2024-03-08T05:56:38;30.60;;;11.70;;
76727;SDS011;65652;53.132;18.026;2024-03-08T05:59:10;29.70;;;11.80;;
76727;SDS011;65652;53.132;18.026;2024-03-08T06:01:38;27.80;;;11.70;;
76727;SDS011;65652;53.132;18.026;2024-03-08T06:04:08;58.60;;;18.70;;
76727;SDS011;65652;53.132;18.026;2024-03-08T06:06:37;56.00;;;19.50;;
76727;SDS011;65652;53.132;18.026;2024-03-08T06:09:04;47.20;;;16.00;;
76727;SDS011;65652;53.132;18.026;2024-03-08T06:11:38;38.10;;;15.30;;
76727;SDS011;65652;53.132;18.026;2024-03-08T06:14:05;46.10;;;16.40;;
76727;SDS011;65652;53.132;18.026;2024-03-08T06:16:32;51.00;;;18.20;;
76727;SDS011;65652;53.132;18.026;2024-03-08T06:19:02;33.70;;;14.00;;
76727;SDS011;65652;53.132;18.026;2024-03-08T06:21:29;38.40;;;13.80;;
76727;SDS011;65652;53.132;18.026;2024-03-08T06:23:56;38.20;;;14.80;;
76727;SDS011;65652;53.132;18.026;2024-03-08T06:26:24;64.20;;;21.70;;
76727;SDS011;65652;53.132;18.026;2024-03-08T06:28:54;61.60;;;20.80;;
76727;SDS011;65652;53.132;18.026;2024-03-08T06:31:22;51.00;;;19.20;;
76727;SDS011;65652;53.132;18.026;2024-03-08T06:33:49;37.60;;;17.00;;
76727;SDS011;65652;53.132;18.026;2024-03-08T06:36:17;41.80;;;16.30;;
76727;SDS011;65652;53.132;18.026;2024-03-08T06:38:51;38.60;;;15.90;;
76727;SDS011;65652;53.132;18.026;2024-03-08T06:41:18;36.80;;;15.70;;
76727;SDS011;65652;53.132;18.026;2024-03-08T06:43:45;38.80;;;14.70;;
76727;SDS011;65652;53.132;18.026;2024-03-08T06:46:15;40.20;;;15.80;;
76727;SDS011;65652;53.132;18.026;2024-03-08T06:48:42;40.00;;;14.90;;
76727;SDS011;65652;53.132;18.026;2024-03-08T06:51:09;41.30;;;15.40;;
76727;SDS011;65652;53.132;18.026;2024-03-08T06:53:37;40.40;;;15.60;;
76727;SDS011;65652;53.132;18.026;2024-03-08T06:56:05;38.40;;;14.70;;
76727;SDS011;65652;53.132;18.026;2024-03-08T06:58:32;42.10;;;15.90;;
76727;SDS011;65652;53.132;18.026;2024-03-08T07:00:59;39.30;;;15.10;;
76727;SDS011;65652;53.132;18.026;2024-03-08T07:03:28;35.80;;;13.90;;
76727;SDS011;65652;53.132;18.026;2024-03-08T07:05:56;38.80;;;15.20;;
76727;SDS011;65652;53.132;18.026;2024-03-08T07:08:28;35.00;;;14.70;;
76727;SDS011;65652;53.132;18.026;2024-03-08T07:10:55;41.10;;;16.10;;
76727;SDS011;65652;53.132;18.026;2024-03-08T07:13:22;46.40;;;17.10;;
76727;SDS011;65652;53.132;18.026;2024-03-08T07:15:48;47.90;;;17.90;;
76727;SDS011;65652;53.132;18.026;2024-03-08T07:18:15;43.70;;;17.60;;
76727;SDS011;65652;53.132;18.026;2024-03-08T07:20:42;38.80;;;15.80;;
76727;SDS011;65652;53.132;18.026;2024-03-08T07:23:10;30.90;;;13.20;;
76727;SDS011;65652;53.132;18.026;2024-03-08T07:25:37;32.40;;;12.10;;
76727;SDS011;65652;53.132;18.026;2024-03-08T07:28:05;34.30;;;14.10;;
76727;SDS011;65652;53.132;18.026;2024-03-08T07:30:33;38.20;;;15.20;;
76727;SDS011;65652;53.132;18.026;2024-03-08T07:33:12;31.10;;;13.30;;
76727;SDS011;65652;53.132;18.026;2024-03-08T07:35:39;37.10;;;15.00;;
76727;SDS011;65652;53.132;18.026;2024-03-08T07:38:07;32.10;;;14.20;;
76727;SDS011;65652;53.132;18.026;2024-03-08T07:40:36;31.90;;;13.80;;
76727;SDS011;65652;53.132;18.026;2024-03-08T07:43:07;36.20;;;14.90;;
76727;SDS011;65652;53.132;18.026;2024-03-08T07:45:34;33.40;;;13.70;;
76727;SDS011;65652;53.132;18.026;2024-03-08T07:48:02;30.80;;;12.70;;
76727;SDS011;65652;53.132;18.026;2024-03-08T07:50:30;32.00;;;15.30;;
76727;SDS011;65652;53.132;18.026;2024-03-08T07:52:59;32.10;;;14.90;;
76727;SDS011;65652;53.132;18.026;2024-03-08T07:55:28;34.00;;;13.20;;
76727;SDS011;65652;53.132;18.026;2024-03-08T07:57:55;35.30;;;15.90;;
76727;SDS011;65652;53.132;18.026;2024-03-08T08:00:22;30.10;;;13.10;;
76727;SDS011;65652;53.132;18.026;2024-03-08T08:05:17;32.10;;;14.30;;
76727;SDS011;65652;53.132;18.026;2024-03-08T08:07:45;33.40;;;14.50;;
76727;SDS011;65652;53.132;18.026;2024-03-08T08:10:13;26.50;;;11.50;;
76727;SDS011;65652;53.132;18.026;2024-03-08T08:12:49;31.90;;;14.10;;
76727;SDS011;65652;53.132;18.026;2024-03-08T08:15:16;30.90;;;13.50;;
76727;SDS011;65652;53.132;18.026;2024-03-08T08:17:43;36.70;;;14.70;;
76727;SDS011;65652;53.132;18.026;2024-03-08T08:20:12;25.50;;;11.30;;
76727;SDS011;65652;53.132;18.026;2024-03-08T08:22:39;31.10;;;12.90;;
76727;SDS011;65652;53.132;18.026;2024-03-08T08:25:07;36.40;;;16.30;;
76727;SDS011;65652;53.132;18.026;2024-03-08T08:27:34;34.40;;;16.10;;
76727;SDS011;65652;53.132;18.026;2024-03-08T08:30:06;35.30;;;15.40;;
76727;SDS011;65652;53.132;18.026;2024-03-08T08:32:35;34.00;;;16.20;;
76727;SDS011;65652;53.132;18.026;2024-03-08T08:35:03;30.00;;;13.90;;
76727;SDS011;65652;53.132;18.026;2024-03-08T08:37:31;34.00;;;15.50;;
76727;SDS011;65652;53.132;18.026;2024-03-08T08:39:58;33.80;;;15.30;;
76727;SDS011;65652;53.132;18.026;2024-03-08T08:42:32;34.00;;;15.70;;
76727;SDS011;65652;53.132;18.026;2024-03-08T08:44:58;34.50;;;17.20;;
76727;SDS011;65652;53.132;18.026;2024-03-08T08:47:25;30.90;;;15.50;;
76727;SDS011;65652;53.132;18.026;2024-03-08T08:49:52;32.80;;;15.40;;
76727;SDS011;65652;53.132;18.026;2024-03-08T08:52:20;27.10;;;12.80;;
76727;SDS011;65652;53.132;18.026;2024-03-08T08:54:47;34.90;;;15.90;;
76727;SDS011;65652;53.132;18.026;2024-03-08T08:57:16;39.70;;;17.30;;
76727;SDS011;65652;53.132;18.026;2024-03-08T08:59:44;41.30;;;17.30;;
76727;SDS011;65652;53.132;18.026;2024-03-08T09:02:12;36.50;;;16.30;;
76727;SDS011;65652;53.132;18.026;2024-03-08T09:04:39;32.90;;;14.80;;
76727;SDS011;65652;53.132;18.026;2024-03-08T09:07:06;36.80;;;17.40;;
76727;SDS011;65652;53.132;18.026;2024-03-08T09:09:33;30.20;;;14.00;;
76727;SDS011;65652;53.132;18.026;2024-03-08T09:14:28;31.80;;;15.70;;
76727;SDS011;65652;53.132;18.026;2024-03-08T09:16:54;36.40;;;16.30;;
76727;SDS011;65652;53.132;18.026;2024-03-08T09:19:21;30.70;;;13.90;;
76727;SDS011;65652;53.132;18.026;2024-03-08T09:21:52;41.20;;;17.10;;
76727;SDS011;65652;53.132;18.026;2024-03-08T09:24:19;32.30;;;14.70;;
76727;SDS011;65652;53.132;18.026;2024-03-08T09:26:46;43.70;;;17.60;;
76727;SDS011;65652;53.132;18.026;2024-03-08T09:29:13;37.70;;;16.50;;
76727;SDS011;65652;53.132;18.026;2024-03-08T09:31:39;31.50;;;14.70;;
76727;SDS011;65652;53.132;18.026;2024-03-08T09:34:07;26.10;;;13.40;;
76727;SDS011;65652;53.132;18.026;2024-03-08T09:36:35;25.60;;;12.20;;
76727;SDS011;65652;53.132;18.026;2024-03-08T09:39:02;24.40;;;11.50;;
76727;SDS011;65652;53.132;18.026;2024-03-08T09:41:29;26.50;;;11.30;;
76727;SDS011;65652;53.132;18.026;2024-03-08T09:43:57;22.20;;;11.20;;
76727;SDS011;65652;53.132;18.026;2024-03-08T09:46:26;25.60;;;11.10;;
76727;SDS011;65652;53.132;18.026;2024-03-08T09:48:53;24.70;;;10.50;;
76727;SDS011;65652;53.132;18.026;2024-03-08T09:51:22;19.70;;;9.50;;
76727;SDS011;65652;53.132;18.026;2024-03-08T09:53:55;19.30;;;9.00;;
76727;SDS011;65652;53.132;18.026;2024-03-08T09:56:22;18.70;;;9.30;;
76727;SDS011;65652;53.132;18.026;2024-03-08T09:58:50;17.90;;;8.00;;
76727;SDS011;65652;53.132;18.026;2024-03-08T10:01:32;18.40;;;8.70;;
76727;SDS011;65652;53.132;18.026;2024-03-08T10:03:59;18.60;;;9.00;;
76727;SDS011;65652;53.132;18.026;2024-03-08T10:06:26;17.30;;;8.70;;
76727;SDS011;65652;53.132;18.026;2024-03-08T10:08:52;21.00;;;9.40;;
76727;SDS011;65652;53.132;18.026;2024-03-08T10:11:20;18.70;;;9.20;;
76727;SDS011;65652;53.132;18.026;2024-03-08T10:13:47;18.70;;;9.40;;
76727;SDS011;65652;53.132;18.026;2024-03-08T10:16:16;18.10;;;8.80;;
76727;SDS011;65652;53.132;18.026;2024-03-08T10:18:44;20.70;;;10.10;;
76727;SDS011;65652;53.132;18.026;2024-03-08T10:21:13;20.70;;;9.80;;
76727;SDS011;65652;53.132;18.026;2024-03-08T10:23:42;19.80;;;9.40;;
76727;SDS011;65652;53.132;18.026;2024-03-08T10:26:12;16.80;;;8.70;;
76727;SDS011;65652;53.132;18.026;2024-03-08T10:28:42;18.90;;;8.50;;
76727;SDS011;65652;53.132;18.026;2024-03-08T10:31:10;18.50;;;8.30;;
76727;SDS011;65652;53.132;18.026;2024-03-08T10:33:38;12.10;;;6.20;;
76727;SDS011;65652;53.132;18.026;2024-03-08T10:36:06;14.80;;;8.00;;
76727;SDS011;65652;53.132;18.026;2024-03-08T10:38:39;15.30;;;8.30;;
76727;SDS011;65652;53.132;18.026;2024-03-08T10:41:09;13.90;;;6.70;;
76727;SDS011;65652;53.132;18.026;2024-03-08T10:46:38;14.70;;;6.90;;
76727;SDS011;65652;53.132;18.026;2024-03-08T10:49:18;10.00;;;4.90;;
76727;SDS011;65652;53.132;18.026;2024-03-08T10:51:57;12.20;;;5.70;;
76727;SDS011;65652;53.132;18.026;2024-03-08T10:54:25;13.70;;;6.50;;
76727;SDS011;65652;53.132;18.026;2024-03-08T10:56:53;14.80;;;6.80;;
76727;SDS011;65652;53.132;18.026;2024-03-08T10:59:21;12.00;;;5.80;;
76727;SDS011;65652;53.132;18.026;2024-03-08T11:01:50;10.60;;;5.60;;
76727;SDS011;65652;53.132;18.026;2024-03-08T11:04:17;15.00;;;6.80;;
76727;SDS011;65652;53.132;18.026;2024-03-08T11:06:50;12.10;;;6.20;;
76727;SDS011;65652;53.132;18.026;2024-03-08T11:12:25;11.10;;;6.10;;
76727;SDS011;65652;53.132;18.026;2024-03-08T11:14:59;12.00;;;6.20;;
76727;SDS011;65652;53.132;18.026;2024-03-08T11:20:09;10.10;;;5.20;;
76727;SDS011;65652;53.132;18.026;2024-03-08T11:22:42;11.30;;;5.80;;
76727;SDS011;65652;53.132;18.026;2024-03-08T11:28:15;9.60;;;5.20;;
76727;SDS011;65652;53.132;18.026;2024-03-08T11:33:31;11.80;;;4.70;;
76727;SDS011;65652;53.132;18.026;2024-03-08T11:38:41;12.80;;;7.50;;
76727;SDS011;65652;53.132;18.026;2024-03-08T11:41:10;8.90;;;3.90;;
76727;SDS011;65652;53.132;18.026;2024-03-08T11:43:40;9.90;;;4.60;;
76727;SDS011;65652;53.132;18.026;2024-03-08T11:46:08;11.90;;;4.90;;
76727;SDS011;65652;53.132;18.026;2024-03-08T11:48:36;10.70;;;5.50;;
76727;SDS011;65652;53.132;18.026;2024-03-08T11:51:04;10.60;;;4.80;;
76727;SDS011;65652;53.132;18.026;2024-03-08T11:53:34;11.20;;;5.80;;
76727;SDS011;65652;53.132;18.026;2024-03-08T11:56:09;10.40;;;5.70;;
76727;SDS011;65652;53.132;18.026;2024-03-08T11:58:38;10.70;;;6.10;;
76727;SDS011;65652;53.132;18.026;2024-03-08T12:01:07;11.80;;;6.10;;
76727;SDS011;65652;53.132;18.026;2024-03-08T12:03:39;11.40;;;6.00;;
76727;SDS011;65652;53.132;18.026;2024-03-08T12:06:09;11.80;;;5.70;;
76727;SDS011;65652;53.132;18.026;2024-03-08T12:08:37;12.20;;;6.30;;
76727;SDS011;65652;53.132;18.026;2024-03-08T12:11:04;10.60;;;5.70;;
76727;SDS011;65652;53.132;18.026;2024-03-08T12:13:32;10.80;;;6.20;;
76727;SDS011;65652;53.132;18.026;2024-03-08T12:16:04;12.10;;;6.10;;
76727;SDS011;65652;53.132;18.026;2024-03-08T12:18:38;16.60;;;6.80;;
76727;SDS011;65652;53.132;18.026;2024-03-08T12:23:44;13.80;;;6.90;;
76727;SDS011;65652;53.132;18.026;2024-03-08T12:26:15;14.90;;;7.60;;
76727;SDS011;65652;53.132;18.026;2024-03-08T12:28:50;13.40;;;6.10;;
76727;SDS011;65652;53.132;18.026;2024-03-08T12:31:18;11.70;;;5.90;;
76727;SDS011;65652;53.132;18.026;2024-03-08T12:36:18;18.30;;;6.50;;
76727;SDS011;65652;53.132;18.026;2024-03-08T12:38:47;14.70;;;7.50;;
76727;SDS011;65652;53.132;18.026;2024-03-08T12:41:14;15.20;;;7.80;;
76727;SDS011;65652;53.132;18.026;2024-03-08T12:43:46;15.70;;;8.60;;
76727;SDS011;65652;53.132;18.026;2024-03-08T12:46:17;13.40;;;7.40;;
76727;SDS011;65652;53.132;18.026;2024-03-08T12:48:48;15.20;;;8.00;;
76727;SDS011;65652;53.132;18.026;2024-03-08T12:51:16;14.30;;;8.00;;
76727;SDS011;65652;53.132;18.026;2024-03-08T12:53:47;14.80;;;8.40;;
76727;SDS011;65652;53.132;18.026;2024-03-08T12:56:16;15.80;;;8.40;;
76727;SDS011;65652;53.132;18.026;2024-03-08T12:58:55;13.20;;;7.30;;
76727;SDS011;65652;53.132;18.026;2024-03-08T13:03:49;15.30;;;8.50;;
76727;SDS011;65652;53.132;18.026;2024-03-08T13:06:16;17.90;;;8.90;;
76727;SDS011;65652;53.132;18.026;2024-03-08T13:08:43;20.30;;;9.70;;
76727;SDS011;65652;53.132;18.026;2024-03-08T13:13:38;17.50;;;9.00;;
76727;SDS011;65652;53.132;18.026;2024-03-08T13:16:06;15.80;;;9.10;;
76727;SDS011;65652;53.132;18.026;2024-03-08T13:18:37;16.50;;;9.10;;
76727;SDS011;65652;53.132;18.026;2024-03-08T13:21:04;17.80;;;9.20;;
76727;SDS011;65652;53.132;18.026;2024-03-08T13:23:35;17.00;;;9.50;;
76727;SDS011;65652;53.132;18.026;2024-03-08T13:26:13;17.10;;;9.30;;
76727;SDS011;65652;53.132;18.026;2024-03-08T13:28:45;15.80;;;9.00;;
76727;SDS011;65652;53.132;18.026;2024-03-08T13:31:12;15.40;;;9.00;;
76727;SDS011;65652;53.132;18.026;2024-03-08T13:33:41;16.80;;;8.80;;
76727;SDS011;65652;53.132;18.026;2024-03-08T13:36:08;15.80;;;8.70;;
76727;SDS011;65652;53.132;18.026;2024-03-08T13:41:13;16.20;;;9.40;;
76727;SDS011;65652;53.132;18.026;2024-03-08T13:43:43;18.20;;;9.10;;
76727;SDS011;65652;53.132;18.026;2024-03-08T13:46:13;16.80;;;8.70;;
76727;SDS011;65652;53.132;18.026;2024-03-08T13:48:40;17.20;;;9.10;;
76727;SDS011;65652;53.132;18.026;2024-03-08T13:51:07;13.90;;;8.60;;
76727;SDS011;65652;53.132;18.026;2024-03-08T13:53:39;15.70;;;8.70;;
76727;SDS011;65652;53.132;18.026;2024-03-08T13:56:07;18.60;;;9.50;;
76727;SDS011;65652;53.132;18.026;2024-03-08T13:58:37;19.20;;;10.40;;
76727;SDS011;65652;53.132;18.026;2024-03-08T14:01:08;15.70;;;8.50;;
76727;SDS011;65652;53.132;18.026;2024-03-08T14:03:38;16.70;;;8.70;;
76727;SDS011;65652;53.132;18.026;2024-03-08T14:06:08;15.90;;;8.50;;
76727;SDS011;65652;53.132;18.026;2024-03-08T14:08:37;18.10;;;9.10;;
76727;SDS011;65652;53.132;18.026;2024-03-08T14:11:06;15.90;;;9.00;;
76727;SDS011;65652;53.132;18.026;2024-03-08T14:13:42;16.00;;;8.90;;
76727;SDS011;65652;53.132;18.026;2024-03-08T14:16:12;18.40;;;10.10;;
76727;SDS011;65652;53.132;18.026;2024-03-08T14:18:39;18.90;;;9.40;;
76727;SDS011;65652;53.132;18.026;2024-03-08T14:21:06;16.10;;;8.50;;
76727;SDS011;65652;53.132;18.026;2024-03-08T14:23:37;17.50;;;9.10;;
76727;SDS011;65652;53.132;18.026;2024-03-08T14:26:04;15.40;;;8.60;;
76727;SDS011;65652;53.132;18.026;2024-03-08T14:28:33;29.90;;;11.10;;
76727;SDS011;65652;53.132;18.026;2024-03-08T14:31:01;18.20;;;9.50;;
76727;SDS011;65652;53.132;18.026;2024-03-08T14:33:37;15.40;;;9.10;;
76727;SDS011;65652;53.132;18.026;2024-03-08T14:36:04;15.20;;;8.70;;
76727;SDS011;65652;53.132;18.026;2024-03-08T14:38:32;19.40;;;9.30;;
76727;SDS011;65652;53.132;18.026;2024-03-08T14:41:01;21.80;;;10.10;;
76727;SDS011;65652;53.132;18.026;2024-03-08T14:43:30;16.90;;;9.10;;
76727;SDS011;65652;53.132;18.026;2024-03-08T14:45:58;17.20;;;8.50;;
76727;SDS011;65652;53.132;18.026;2024-03-08T14:48:25;28.80;;;10.20;;
76727;SDS011;65652;53.132;18.026;2024-03-08T14:50:52;19.50;;;9.50;;
76727;SDS011;65652;53.132;18.026;2024-03-08T14:53:19;28.40;;;10.10;;
76727;SDS011;65652;53.132;18.026;2024-03-08T14:55:46;22.50;;;9.90;;
76727;SDS011;65652;53.132;18.026;2024-03-08T14:58:14;17.60;;;9.10;;
76727;SDS011;65652;53.132;18.026;2024-03-08T15:00:41;14.80;;;8.10;;
76727;SDS011;65652;53.132;18.026;2024-03-08T15:03:08;15.80;;;8.30;;
76727;SDS011;65652;53.132;18.026;2024-03-08T15:05:39;17.10;;;8.70;;